Time;durP1;ratioP1;P1;durP2;ratioP2;P2;SDS_P1;SDS_P2;PMS_P1;PMS_P2;Temp;Humidity;BMP_temperature;BMP_pressure;BME280_temperature;BME280_humidity;BME280_pressure;Samples;Min_cycle;Max_cycle;Signal;HPM_P1;HPM_P2
2021/09/03 00:01:27;;;;;;;;;;;;;;;14.28;80.12;98920.44;1602476;89;24761;-87
2021/09/03 00:03:53;;;;;;;;;;;;;;;14.26;80.15;98921.03;1599344;89;22077;-87
2021/09/03 00:06:23;;;;;;;;;;;;;;;14.24;80.19;98920.30;1570061;89;20994;-87
2021/09/03 00:08:52;;;;;;;;;;;;;;;14.19;80.21;98921.97;1571830;89;25323;-88
2021/09/03 00:11:19;;;;;;;;;;;;;;;14.17;80.26;98919.11;1570240;90;20323;-88
2021/09/03 00:13:45;;;;;;;;;;;;;;;14.12;80.29;98912.89;1549252;91;24843;-88
2021/09/03 00:16:11;;;;;;;;;;;;;;;14.09;80.33;98916.21;1553000;91;20225;-88
2021/09/03 00:18:37;;;;;;;;;;;;;;;14.03;80.37;98908.31;1578429;89;26147;-88
2021/09/03 00:21:03;;;;;;;;;;;;;;;14.02;80.42;98916.34;1547390;91;24400;-88
2021/09/03 00:23:29;;;;;;;;;;;;;;;14.00;80.48;98909.88;1539092;91;20542;-88
2021/09/03 00:25:55;;;;;;;;;;;;;;;13.97;80.52;98907.45;1550611;91;20759;-88
2021/09/03 00:28:21;;;;;;;;;;;;;;;13.96;80.55;98909.75;1571797;90;20264;-88
2021/09/03 00:30:47;;;;;;;;;;;;;;;13.94;80.62;98908.17;1559850;90;26269;-88
2021/09/03 00:33:16;;;;;;;;;;;;;;;13.90;80.66;98900.16;1569652;90;24458;-88
2021/09/03 00:35:42;;;;;;;;;;;;;;;13.89;80.69;98899.80;1549854;91;20485;-88
2021/09/03 00:38:08;;;;;;;;;;;;;;;13.90;80.75;98899.69;1552343;91;24799;-88
2021/09/03 00:40:34;;;;;;;;;;;;;;;13.89;80.78;98890.11;1568600;90;20934;-88
2021/09/03 00:43:02;;;;;;;;;;;;;;;13.89;80.85;98891.43;1578652;90;26284;-86
2021/09/03 00:45:28;;;;;;;;;;;;;;;13.88;80.88;98888.43;1540974;90;24652;-86
2021/09/03 00:47:54;;;;;;;;;;;;;;;13.88;80.92;98889.75;1570188;90;20267;-86
2021/09/03 00:50:21;;;;;;;;;;;;;;;13.87;80.98;98889.86;1573040;90;24797;-86
2021/09/03 00:52:47;;;;;;;;;;;;;;;13.85;81.03;98890.00;1574362;90;22090;-86
2021/09/03 00:55:16;;;;;;;;;;;;;;;13.85;81.07;98891.31;1572764;90;21101;-86
2021/09/03 00:57:42;;;;;;;;;;;;;;;13.80;81.09;98889.00;1588308;88;25396;-87
2021/09/03 01:00:08;;;;;;;;;;;;;;;13.75;81.12;98887.20;1570865;90;20252;-86
2021/09/03 01:02:35;;;;;;;;;;;;;;;13.72;81.15;98885.28;1566711;90;25397;-86
2021/09/03 01:05:01;;;;;;;;;;;;;;;13.68;81.18;98892.58;1574428;90;22094;-86
2021/09/03 01:07:27;;;;;;;;;;;;;;;13.71;81.24;98884.92;1572410;90;26106;-86
2021/09/03 01:09:53;;;;;;;;;;;;;;;13.69;81.30;98885.02;1572900;90;24613;-86
2021/09/03 01:12:19;;;;;;;;;;;;;;;13.69;81.37;98875.82;1569698;90;20361;-86
2021/09/03 01:14:46;;;;;;;;;;;;;;;13.73;81.37;98883.02;1567347;90;24735;-86
2021/09/03 01:17:12;;;;;;;;;;;;;;;13.70;81.45;98884.08;1567365;90;21968;-86
2021/09/03 01:19:39;;;;;;;;;;;;;;;13.68;81.47;98880.75;1571357;90;26211;-86
2021/09/03 01:22:05;;;;;;;;;;;;;;;13.63;81.50;98882.88;1567998;90;24675;-86
2021/09/03 01:24:33;;;;;;;;;;;;;;;13.59;81.55;98876.16;1571869;90;20220;-86
2021/09/03 01:26:59;;;;;;;;;;;;;;;13.56;81.56;98881.66;1574569;90;24840;-86
2021/09/03 01:29:25;;;;;;;;;;;;;;;13.51;81.61;98877.70;1567212;90;22070;-86
2021/09/03 01:31:51;;;;;;;;;;;;;;;13.47;81.67;98869.69;1566950;90;21164;-87
2021/09/03 01:34:17;;;;;;;;;;;;;;;13.47;81.72;98871.84;1573074;90;20864;-87
2021/09/03 01:36:43;;;;;;;;;;;;;;;13.41;81.78;98865.72;1578288;90;20501;-86
2021/09/03 01:39:09;;;;;;;;;;;;;;;13.40;81.82;98866.19;1567892;90;20328;-86
2021/09/03 01:41:35;;;;;;;;;;;;;;;13.37;81.87;98860.30;1571613;90;20267;-86
2021/09/03 01:44:01;;;;;;;;;;;;;;;13.37;81.93;98855.89;1598549;88;21113;-86
2021/09/03 01:46:27;;;;;;;;;;;;;;;13.36;82.00;98856.83;1604659;89;20324;-86
2021/09/03 01:48:54;;;;;;;;;;;;;;;13.34;82.06;98850.87;1606556;89;20318;-86
2021/09/03 01:51:20;;;;;;;;;;;;;;;13.31;82.11;98855.02;1599927;89;20303;-86
2021/09/03 01:53:46;;;;;;;;;;;;;;;13.29;82.17;98846.44;1607047;89;22061;-87
2021/09/03 01:56:12;;;;;;;;;;;;;;;13.26;82.22;98847.95;1603729;89;26007;-86
2021/09/03 01:58:38;;;;;;;;;;;;;;;13.23;82.27;98846.89;1582928;90;24693;-86
2021/09/03 02:01:04;;;;;;;;;;;;;;;13.21;82.30;98847.46;1572595;90;20236;-86
2021/09/03 02:03:30;;;;;;;;;;;;;;;13.21;82.36;98851.88;1577069;90;24758;-86
2021/09/03 02:05:58;;;;;;;;;;;;;;;13.19;82.39;98840.19;1599422;88;21914;-86
2021/09/03 02:08:24;;;;;;;;;;;;;;;13.19;82.46;98844.60;1566659;89;26233;-86
2021/09/03 02:10:50;;;;;;;;;;;;;;;13.18;82.50;98846.86;1573948;90;24454;-86
2021/09/03 02:13:16;;;;;;;;;;;;;;;13.16;82.54;98845.66;1563122;90;20416;-86
2021/09/03 02:15:42;;;;;;;;;;;;;;;13.16;82.58;98849.59;1570306;89;20287;-86
2021/09/03 02:18:08;;;;;;;;;;;;;;;13.15;82.62;98848.38;1570376;90;20330;-86
2021/09/03 02:20:34;;;;;;;;;;;;;;;13.16;82.65;98844.81;1546147;91;26052;-86
2021/09/03 02:23:00;;;;;;;;;;;;;;;13.15;82.71;98847.07;1573379;89;25193;-86
2021/09/03 02:25:26;;;;;;;;;;;;;;;13.13;82.73;98842.42;1554340;91;20285;-86
2021/09/03 02:27:56;;;;;;;;;;;;;;;13.09;82.78;98835.19;1546334;91;20308;-86
2021/09/03 02:30:20;;;;;;;;;;;;;;;13.06;82.81;98833.27;1544269;91;22829;-86
2021/09/03 02:32:52;;;;;;;;;;;;;;;13.03;82.86;98830.88;1570030;89;26788;-86
2021/09/03 02:35:18;;;;;;;;;;;;;;;12.98;82.89;98826.78;1549170;91;24542;-86
2021/09/03 02:37:47;;;;;;;;;;;;;;;12.95;82.96;98823.55;1598459;88;20240;-89
2021/09/03 02:40:13;;;;;;;;;;;;;;;12.93;83.01;98821.03;1549766;91;24877;-89
2021/09/03 02:42:45;;;;;;;;;;;;;;;12.92;83.04;98814.13;1539994;91;21947;-90
2021/09/03 02:45:12;;;;;;;;;;;;;;;12.92;83.11;98814.13;1550642;90;25633;-89
2021/09/03 02:47:39;;;;;;;;;;;;;;;12.93;83.15;98817.56;1571432;90;24451;-89
2021/09/03 02:50:05;;;;;;;;;;;;;;;12.91;83.22;98815.54;1552834;91;20308;-89
2021/09/03 02:52:31;;;;;;;;;;;;;;;12.91;83.24;98815.06;1554134;91;24836;-89
2021/09/03 02:54:58;;;;;;;;;;;;;;;12.90;83.29;98812.07;1568733;90;22081;-88
2021/09/03 02:57:24;;;;;;;;;;;;;;;12.91;83.34;98813.75;1551614;91;21270;-88
2021/09/03 02:59:50;;;;;;;;;;;;;;;12.89;83.40;98809.55;1554583;91;20272;-89
2021/09/03 03:02:16;;;;;;;;;;;;;;;12.87;83.42;98816.73;1569006;89;20797;-89
2021/09/03 03:04:42;;;;;;;;;;;;;;;12.88;83.44;98809.18;1570404;89;20310;-86
2021/09/03 03:07:08;;;;;;;;;;;;;;;12.87;83.50;98807.02;1622628;87;20899;-86
2021/09/03 03:09:35;;;;;;;;;;;;;;;12.87;83.54;98799.14;1620515;87;26494;-87
2021/09/03 03:12:01;;;;;;;;;;;;;;;12.85;83.57;98803.70;1599253;89;24437;-87
2021/09/03 03:14:33;;;;;;;;;;;;;;;12.81;83.60;98798.31;1596310;89;20298;-87
2021/09/03 03:16:56;;;;;;;;;;;;;;;12.78;83.62;98798.98;1582780;89;39247;-89
2021/09/03 03:19:24;;;;;;;;;;;;;;;12.74;83.65;98793.13;1601824;88;22230;-89
2021/09/03 03:21:50;;;;;;;;;;;;;;;12.69;83.69;98791.31;1580846;89;26063;-89
2021/09/03 03:24:16;;;;;;;;;;;;;;;12.64;83.71;98798.69;1549588;91;24510;-88
2021/09/03 03:26:43;;;;;;;;;;;;;;;12.59;83.72;98791.63;1548619;91;20238;-89
2021/09/03 03:29:09;;;;;;;;;;;;;;;12.57;83.76;98802.70;1576336;89;26162;-89
2021/09/03 03:31:35;;;;;;;;;;;;;;;12.55;83.81;98800.65;1572262;90;20818;-87
2021/09/03 03:34:11;;;;;;;;;;;;;;;12.53;83.85;98792.06;1578106;89;26095;-87
2021/09/03 03:36:37;;;;;;;;;;;;;;;12.49;83.89;98794.55;1548982;91;24756;-87
2021/09/03 03:39:03;;;;;;;;;;;;;;;12.47;83.94;98799.06;1580690;90;20240;-87
2021/09/03 03:41:29;;;;;;;;;;;;;;;12.43;83.97;98802.39;1547611;91;24819;-87
2021/09/03 03:44:10;;;;;;;;;;;;;;;12.42;84.04;98795.46;1548277;91;20859;-87
2021/09/03 03:46:40;;;;;;;;;;;;;;;12.40;84.06;98799.13;1572157;89;26838;-87
2021/09/03 03:49:08;;;;;;;;;;;;;;;12.40;84.11;98799.13;1572178;90;24633;-87
2021/09/03 03:51:34;;;;;;;;;;;;;;;12.41;84.17;98799.50;1548548;92;20302;-88
2021/09/03 03:54:00;;;;;;;;;;;;;;;12.39;84.21;98796.13;1565343;90;20250;-88
2021/09/03 03:56:32;;;;;;;;;;;;;;;12.37;84.25;98796.27;1595431;89;21949;-87
2021/09/03 03:59:05;;;;;;;;;;;;;;;12.39;84.32;98789.57;1598624;89;26078;-87
2021/09/03 04:01:37;;;;;;;;;;;;;;;12.38;84.35;98790.05;1600581;88;24440;-87
2021/09/03 04:04:03;;;;;;;;;;;;;;;12.37;84.38;98799.36;1602826;89;20240;-87
2021/09/03 04:06:44;;;;;;;;;;;;;;;12.39;84.43;98794.34;1596726;89;24736;-87
2021/09/03 04:09:19;;;;;;;;;;;;;;;12.38;84.46;98792.67;1602574;89;22066;-88
2021/09/03 04:11:47;;;;;;;;;;;;;;;12.39;84.50;98793.51;1599642;89;26069;-88
2021/09/03 04:14:13;;;;;;;;;;;;;;;12.36;84.54;98792.43;1594229;89;24515;-87
2021/09/03 04:16:39;;;;;;;;;;;;;;;12.37;84.58;98789.70;1596060;89;20516;-86
2021/09/03 04:19:05;;;;;;;;;;;;;;;12.41;84.65;98781.97;1598183;89;24894;-86
2021/09/03 04:21:31;;;;;;;;;;;;;;;12.44;84.68;98776.48;1600838;89;22017;-86
2021/09/03 04:23:57;;;;;;;;;;;;;;;12.45;84.74;98778.63;1601545;89;26177;-86
2021/09/03 04:26:24;;;;;;;;;;;;;;;12.45;84.78;98781.27;1597661;89;24562;-86
2021/09/03 04:28:53;;;;;;;;;;;;;;;12.46;84.78;98785.57;1598362;89;20226;-86
2021/09/03 04:31:22;;;;;;;;;;;;;;;12.46;84.81;98777.70;1597537;89;24945;-86
2021/09/03 04:33:48;;;;;;;;;;;;;;;12.45;84.83;98772.91;1602428;89;22090;-86
2021/09/03 04:36:14;;;;;;;;;;;;;;;12.45;84.86;98776.85;1597206;89;25963;-86
2021/09/03 04:38:40;;;;;;;;;;;;;;;12.45;84.88;98774.23;1599735;89;24487;-86
2021/09/03 04:41:09;;;;;;;;;;;;;;;12.44;84.92;98780.42;1593792;89;20292;-86
2021/09/03 04:43:35;;;;;;;;;;;;;;;12.42;84.93;98772.31;1596727;88;25551;-89
2021/09/03 04:46:01;;;;;;;;;;;;;;;12.41;84.97;98775.41;1597898;87;20311;-89
2021/09/03 04:48:27;;;;;;;;;;;;;;;12.38;84.97;98771.67;1589727;87;20931;-89
2021/09/03 04:50:53;;;;;;;;;;;;;;;12.41;85.01;98773.25;1557471;90;24506;-88
2021/09/03 04:53:19;;;;;;;;;;;;;;;12.41;85.05;98775.88;1545434;91;20272;-88
2021/09/03 04:55:52;;;;;;;;;;;;;;;12.42;85.09;98776.25;1541704;91;20272;-89
2021/09/03 04:58:22;;;;;;;;;;;;;;;12.41;85.13;98777.19;1548750;91;22636;-89
2021/09/03 05:00:48;;;;;;;;;;;;;;;12.42;85.18;98778.88;1569607;89;26062;-88
2021/09/03 05:03:15;;;;;;;;;;;;;;;12.45;85.21;98776.01;1582836;89;24302;-89
2021/09/03 05:05:41;;;;;;;;;;;;;;;12.43;85.24;98774.83;1570962;89;20322;-89
2021/09/03 05:08:07;;;;;;;;;;;;;;;12.47;85.31;98777.59;1549717;91;24762;-88
2021/09/03 05:10:33;;;;;;;;;;;;;;;12.51;85.37;98775.58;1564540;90;22104;-89
2021/09/03 05:12:59;;;;;;;;;;;;;;;12.54;85.42;98780.63;1552325;91;26031;-89
2021/09/03 05:15:27;;;;;;;;;;;;;;;12.54;85.45;98786.71;1555561;89;24563;-89
2021/09/03 05:17:53;;;;;;;;;;;;;;;12.59;85.49;98782.44;1580648;89;20287;-88
2021/09/03 05:20:19;;;;;;;;;;;;;;;12.62;85.57;98790.08;1568195;90;20351;-89
2021/09/03 05:22:45;;;;;;;;;;;;;;;12.66;85.61;98783.64;1573393;90;22079;-89
2021/09/03 05:25:13;;;;;;;;;;;;;;;12.72;85.67;98784.52;1546245;91;26099;-89
2021/09/03 05:27:39;;;;;;;;;;;;;;;12.76;85.73;98783.36;1572799;90;24433;-89
2021/09/03 05:30:05;;;;;;;;;;;;;;;12.80;85.78;98782.19;1541429;91;20325;-87
2021/09/03 05:32:31;;;;;;;;;;;;;;;12.84;85.83;98778.84;1579513;89;24916;-87
2021/09/03 05:35:05;;;;;;;;;;;;;;;12.89;85.89;98783.28;1571943;90;21939;-88
2021/09/03 05:37:31;;;;;;;;;;;;;;;12.91;85.94;98779.61;1577645;89;26036;-87
2021/09/03 05:39:58;;;;;;;;;;;;;;;12.96;86.00;98782.73;1570750;90;20888;-88
2021/09/03 05:42:28;;;;;;;;;;;;;;;13.00;86.04;98785.48;1578533;90;20472;-87
2021/09/03 05:44:54;;;;;;;;;;;;;;;13.07;86.12;98777.15;1576296;90;24851;-87
2021/09/03 05:47:20;;;;;;;;;;;;;;;13.14;86.18;98774.47;1592696;89;21924;-87
2021/09/03 05:49:47;;;;;;;;;;;;;;;13.18;86.23;98770.65;1598891;89;26766;-87
2021/09/03 05:52:19;;;;;;;;;;;;;;;13.24;86.30;98771.51;1598814;89;24619;-87
2021/09/03 05:54:45;;;;;;;;;;;;;;;13.28;86.35;98772.47;1599836;89;20533;-87
2021/09/03 05:57:11;;;;;;;;;;;;;;;13.36;86.43;98774.53;1600064;89;24812;-87
2021/09/03 05:59:41;;;;;;;;;;;;;;;13.44;86.47;98771.30;1609404;88;20241;-87
2021/09/03 06:02:07;;;;;;;;;;;;;;;13.50;86.54;98776.09;1598167;89;26189;-87
2021/09/03 06:04:39;;;;;;;;;;;;;;;13.55;86.60;98770.84;1598360;89;20312;-86
2021/09/03 06:07:05;;;;;;;;;;;;;;;13.63;86.68;98763.22;1581610;90;20224;-86
2021/09/03 06:09:31;;;;;;;;;;;;;;;13.68;86.71;98769.44;1580722;89;20302;-86
2021/09/03 06:11:57;;;;;;;;;;;;;;;13.73;86.74;98759.39;1582377;89;21997;-86
2021/09/03 06:14:24;;;;;;;;;;;;;;;13.80;86.83;98758.78;1579681;90;26075;-86
2021/09/03 06:16:50;;;;;;;;;;;;;;;13.87;86.86;98760.94;1583471;89;24513;-86
2021/09/03 06:19:16;;;;;;;;;;;;;;;13.94;86.95;98754.25;1578743;90;20306;-86
2021/09/03 06:21:42;;;;;;;;;;;;;;;14.00;87.00;98759.88;1582852;90;25663;-86
2021/09/03 06:24:27;;;;;;;;;;;;;;;14.08;87.06;98761.41;1580828;89;20287;-86
2021/09/03 06:26:36;;;;;;;;;;;;;;;14.15;87.13;98760.45;1578519;89;26914;-86
2021/09/03 06:29:02;;;;;;;;;;;;;;;14.21;87.17;98761.28;1581400;89;20882;-87
2021/09/03 06:31:34;;;;;;;;;;;;;;;14.32;87.20;98767.85;1580016;90;20472;-87
2021/09/03 06:34:02;;;;;;;;;;;;;;;14.34;87.23;98747.52;1581251;89;24775;-87
2021/09/03 06:36:28;;;;;;;;;;;;;;;14.51;87.31;98760.16;1581062;90;21947;-89
2021/09/03 06:38:54;;;;;;;;;;;;;;;14.59;87.34;98756.92;1580457;89;21057;-89
2021/09/03 06:41:20;;;;;;;;;;;;;;;14.65;87.42;98757.27;1580851;89;24557;-89
2021/09/03 06:43:46;;;;;;;;;;;;;;;14.74;87.49;98765.38;1582010;89;20296;-87
2021/09/03 06:46:12;;;;;;;;;;;;;;;14.79;87.51;98757.92;1581828;87;24797;-87
2021/09/03 06:48:47;;;;;;;;;;;;;;;14.85;87.54;98756.95;1564262;89;20227;-86
2021/09/03 06:51:21;;;;;;;;;;;;;;;14.92;87.53;98755.97;1573558;89;26022;-86
2021/09/03 06:53:47;;;;;;;;;;;;;;;15.01;87.56;98752.08;1573432;89;25136;-87
2021/09/03 06:56:16;;;;;;;;;;;;;;;15.10;87.56;98749.19;1565756;89;20472;-86
2021/09/03 06:58:47;;;;;;;;;;;;;;;15.17;87.58;98749.48;1571451;89;24882;-86
2021/09/03 07:01:17;;;;;;;;;;;;;;;15.25;87.58;98754.97;1574392;89;22024;-88
2021/09/03 07:03:43;;;;;;;;;;;;;;;15.34;87.57;98755.02;1573353;89;26055;-89
2021/09/03 07:06:09;;;;;;;;;;;;;;;15.41;87.56;98756.19;1565259;89;24689;-89
2021/09/03 07:08:35;;;;;;;;;;;;;;;15.52;87.54;98751.83;1572272;89;20286;-89
2021/09/03 07:11:01;;;;;;;;;;;;;;;15.63;87.53;98749.95;1569617;90;20369;-88
2021/09/03 07:13:28;;;;;;;;;;;;;;;15.73;87.51;98744.72;1565090;90;22088;-88
2021/09/03 07:15:54;;;;;;;;;;;;;;;15.80;87.48;98747.20;1568660;90;26011;-88
2021/09/03 07:18:20;;;;;;;;;;;;;;;15.84;87.46;98748.11;1568428;90;20279;-89
2021/09/03 07:20:48;;;;;;;;;;;;;;;15.92;87.41;98748.78;1570011;89;20341;-89
2021/09/03 07:23:14;;;;;;;;;;;;;;;15.98;87.39;98743.45;1574230;89;24875;-89
2021/09/03 07:25:40;;;;;;;;;;;;;;;16.03;87.33;98743.41;1573266;89;20851;-89
2021/09/03 07:28:06;;;;;;;;;;;;;;;16.07;87.26;98746.60;1581697;89;21067;-86
2021/09/03 07:30:32;;;;;;;;;;;;;;;16.14;87.17;98747.27;1565699;90;20286;-86
2021/09/03 07:32:58;;;;;;;;;;;;;;;16.23;87.14;98750.41;1566450;90;20472;-86
2021/09/03 07:35:26;;;;;;;;;;;;;;;16.32;87.08;98744.30;1569859;89;20686;-86
2021/09/03 07:37:59;;;;;;;;;;;;;;;16.42;87.02;98742.19;1565680;90;22091;-86
2021/09/03 07:40:26;;;;;;;;;;;;;;;16.47;86.95;98738.17;1572179;89;26107;-86
2021/09/03 07:42:54;;;;;;;;;;;;;;;16.53;86.93;98734.95;1567552;89;24583;-88
2021/09/03 07:45:22;;;;;;;;;;;;;;;16.59;86.83;98733.60;1581442;89;20612;-89
2021/09/03 07:47:48;;;;;;;;;;;;;;;16.65;86.75;98731.73;1577983;89;24744;-88
2021/09/03 07:50:18;;;;;;;;;;;;;;;16.72;86.73;98736.83;1577688;89;22185;-89
2021/09/03 07:52:45;;;;;;;;;;;;;;;16.79;86.68;98729.19;1580488;89;26260;-89
2021/09/03 07:55:11;;;;;;;;;;;;;;;16.84;86.61;98729.59;1572869;89;25046;-88
2021/09/03 07:57:37;;;;;;;;;;;;;;;16.90;86.50;98722.44;1570772;89;20276;-89
2021/09/03 08:00:05;;;;;;;;;;;;;;;16.95;86.44;98720.20;1572726;89;24721;-88
2021/09/03 08:02:31;;;;;;;;;;;;;;;17.00;86.40;98726.74;1590661;88;21798;-88
2021/09/03 08:04:57;;;;;;;;;;;;;;;17.07;86.34;98723.86;1577053;89;21083;-88
2021/09/03 08:07:27;;;;;;;;;;;;;;;17.12;86.29;98719.02;1578625;89;20464;-88
2021/09/03 08:09:51;;;;;;;;;;;;;;;17.23;86.22;98723.31;1571825;89;20224;-89
2021/09/03 08:12:18;;;;;;;;;;;;;;;17.33;86.17;98724.61;1570758;90;20775;-89
2021/09/03 08:14:44;;;;;;;;;;;;;;;17.43;86.13;98730.71;1569088;89;22139;-88
2021/09/03 08:17:10;;;;;;;;;;;;;;;17.50;86.08;98726.04;1572886;89;21164;-88
2021/09/03 08:19:36;;;;;;;;;;;;;;;17.56;86.00;98718.02;1567075;89;24454;-88
2021/09/03 08:22:02;;;;;;;;;;;;;;;17.63;85.86;98712.98;1566470;90;20258;-89
2021/09/03 08:24:29;;;;;;;;;;;;;;;17.71;85.71;98717.08;1570402;89;24941;-88
2021/09/03 08:26:55;;;;;;;;;;;;;;;17.82;85.58;98716.90;1566058;90;22083;-87
2021/09/03 08:29:21;;;;;;;;;;;;;;;17.90;85.47;98712.53;1573227;90;21009;-86
2021/09/03 08:31:49;;;;;;;;;;;;;;;17.98;85.34;98715.78;1570686;90;24492;-86
2021/09/03 08:34:26;;;;;;;;;;;;;;;18.08;85.22;98718.38;1569226;90;20254;-86
2021/09/03 08:36:52;;;;;;;;;;;;;;;18.17;85.13;98710.86;1566090;89;24839;-87
2021/09/03 08:39:26;;;;;;;;;;;;;;;18.22;84.97;98710.75;1571399;90;21997;-86
2021/09/03 08:41:52;;;;;;;;;;;;;;;18.27;84.75;98709.81;1574530;90;25920;-86
2021/09/03 08:44:18;;;;;;;;;;;;;;;18.33;84.59;98714.52;1574772;89;24631;-86
2021/09/03 08:46:45;;;;;;;;;;;;;;;18.36;84.43;98710.27;1571712;90;20268;-87
2021/09/03 08:49:13;;;;;;;;;;;;;;;18.39;84.22;98703.82;1580519;90;24812;-86
2021/09/03 08:51:39;;;;;;;;;;;;;;;18.47;84.08;98703.08;1582551;89;22069;-89
2021/09/03 08:54:06;;;;;;;;;;;;;;;18.52;83.91;98700.81;1582117;89;26008;-89
2021/09/03 08:56:32;;;;;;;;;;;;;;;18.56;83.78;98701.71;1582236;90;24472;-88
2021/09/03 08:59:01;;;;;;;;;;;;;;;18.62;83.59;98701.11;1581668;90;20820;-88
2021/09/03 09:01:32;;;;;;;;;;;;;;;18.70;83.41;98699.05;1579904;89;24778;-89
2021/09/03 09:03:56;;;;;;;;;;;;;;;18.78;83.26;98695.13;1596997;88;21532;-88
2021/09/03 09:06:24;;;;;;;;;;;;;;;18.84;83.10;98688.38;1582070;89;26178;-89
2021/09/03 09:08:56;;;;;;;;;;;;;;;18.90;82.84;98695.72;1579271;89;24432;-89
2021/09/03 09:11:24;;;;;;;;;;;;;;;18.94;82.58;98689.12;1577283;89;20307;-89
2021/09/03 09:13:58;;;;;;;;;;;;;;;18.98;82.31;98687.36;1582272;89;25784;-89
2021/09/03 09:16:30;;;;;;;;;;;;;;;19.05;82.02;98686.22;1579171;89;22872;-89
2021/09/03 09:18:56;;;;;;;;;;;;;;;19.09;81.77;98684.43;1580831;89;26126;-89
2021/09/03 09:21:30;;;;;;;;;;;;;;;19.14;81.59;98674.70;1582713;89;24729;-88
2021/09/03 09:24:01;;;;;;;;;;;;;;;19.19;81.35;98674.58;1582229;89;20325;-89
2021/09/03 09:26:29;;;;;;;;;;;;;;;19.29;81.21;98674.47;1581515;89;24744;-89
2021/09/03 09:28:55;;;;;;;;;;;;;;;19.36;81.10;98672.87;1575470;89;22121;-89
2021/09/03 09:31:30;;;;;;;;;;;;;;;19.39;80.95;98664.58;1582963;89;26875;-89
2021/09/03 09:33:59;;;;;;;;;;;;;;;19.45;80.78;98669.30;1583827;89;24394;-89
2021/09/03 09:36:33;;;;;;;;;;;;;;;19.51;80.56;98659.37;1578925;89;20287;-89
2021/09/03 09:38:59;;;;;;;;;;;;;;;19.58;80.30;98660.38;1562935;90;24958;-89
2021/09/03 09:41:28;;;;;;;;;;;;;;;19.62;80.04;98660.92;1580612;89;22019;-86
2021/09/03 09:43:54;;;;;;;;;;;;;;;19.62;79.78;98660.92;1579525;89;26091;-86
2021/09/03 09:46:26;;;;;;;;;;;;;;;19.65;79.50;98663.25;1589030;88;25451;-86
2021/09/03 09:48:56;;;;;;;;;;;;;;;19.67;79.27;98656.45;1594750;89;20174;-87
2021/09/03 09:51:35;;;;;;;;;;;;;;;19.72;79.08;98656.31;1568252;90;24919;-87
2021/09/03 09:54:09;;;;;;;;;;;;;;;19.76;78.86;98652.84;1540976;92;21992;-86
2021/09/03 09:56:38;;;;;;;;;;;;;;;19.80;78.55;98645.70;1555883;91;26736;-86
2021/09/03 09:59:13;;;;;;;;;;;;;;;19.80;78.20;98647.56;1546961;91;24462;-85
2021/09/03 10:01:40;;;;;;;;;;;;;;;19.78;77.82;98640.23;1552754;91;20282;-87
2021/09/03 10:04:11;;;;;;;;;;;;;;;19.92;77.49;98648.91;1550078;92;25628;-91
2021/09/03 10:06:38;;;;;;;;;;;;;;;19.95;77.21;98647.28;1525847;90;22735;-87
2021/09/03 10:09:08;;;;;;;;;;;;;;;19.97;76.94;98642.62;1566797;90;26720;-90
2021/09/03 10:11:36;;;;;;;;;;;;;;;20.01;76.73;98642.66;1544447;92;24555;-90
2021/09/03 10:14:09;;;;;;;;;;;;;;;20.05;76.54;98648.81;1546625;92;20262;-90
2021/09/03 10:16:35;;;;;;;;;;;;;;;20.11;76.38;98638.03;1547926;92;24953;-89
2021/09/03 10:19:03;;;;;;;;;;;;;;;20.19;76.20;98642.02;1546216;92;22047;-89
2021/09/03 10:21:36;;;;;;;;;;;;;;;20.25;76.06;98632.56;1567034;90;26030;-91
2021/09/03 10:24:03;;;;;;;;;;;;;;;20.30;75.87;98632.41;1549249;91;24439;-88
2021/09/03 10:26:30;;;;;;;;;;;;;;;20.36;75.62;98629.13;1543774;91;20222;-89
2021/09/03 10:29:16;;;;;;;;;;;;;;;20.41;75.40;98632.13;1565947;90;25557;-89
2021/09/03 10:31:57;;;;;;;;;;;;;;;20.45;75.10;98629.49;1569185;90;22071;-89
2021/09/03 10:34:43;;;;;;;;;;;;;;;20.48;74.74;98628.31;1547499;92;26360;-90
2021/09/03 10:37:14;;;;;;;;;;;;;;;20.52;74.43;98623.49;1552403;90;24529;-89
2021/09/03 10:39:44;;;;;;;;;;;;;;;20.59;74.14;98621.34;1538530;92;20321;-89
2021/09/03 10:42:13;;;;;;;;;;;;;;;20.63;73.90;98617.84;1539773;90;24771;-89
2021/09/03 10:45:01;;;;;;;;;;;;;;;20.68;73.63;98622.16;1542410;92;22096;-89
2021/09/03 10:47:30;;;;;;;;;;;;;;;20.70;73.30;98612.20;1547286;90;26013;-89
2021/09/03 10:49:56;;;;;;;;;;;;;;;20.76;73.04;98604.89;1544485;92;24589;-89
2021/09/03 10:52:22;;;;;;;;;;;;;;;20.76;72.82;98605.72;1573663;90;20234;-89
2021/09/03 10:54:48;;;;;;;;;;;;;;;20.76;72.55;98600.90;1548310;92;24733;-89
2021/09/03 10:57:15;;;;;;;;;;;;;;;20.82;72.35;98605.55;1570504;90;21461;-89
2021/09/03 10:59:43;;;;;;;;;;;;;;;20.83;72.10;98600.57;1544261;91;26017;-89
2021/09/03 11:02:11;;;;;;;;;;;;;;;20.82;71.83;98598.41;1562726;90;25330;-89
2021/09/03 11:04:39;;;;;;;;;;;;;;;20.85;71.62;98597.22;1549783;91;20258;-89
2021/09/03 11:07:11;;;;;;;;;;;;;;;20.91;71.42;98595.23;1547394;91;25630;-89
2021/09/03 11:09:34;;;;;;;;;;;;;;;20.98;71.29;98593.56;1537644;92;22776;-89
2021/09/03 11:12:04;;;;;;;;;;;;;;;21.04;71.07;98596.88;1554116;92;26685;-88
2021/09/03 11:14:30;;;;;;;;;;;;;;;21.12;70.87;98597.34;1584539;89;24746;-88
2021/09/03 11:19:53;;;;;;;;;;;;;;;21.24;70.60;98590.20;1565222;90;25444;-87
2021/09/03 11:22:20;;;;;;;;;;;;;;;21.27;70.35;98588.52;1567987;90;22083;-88
2021/09/03 11:24:52;;;;;;;;;;;;;;;21.29;70.08;98587.86;1547066;92;27672;-89
2021/09/03 11:27:22;;;;;;;;;;;;;;;21.35;69.93;98586.84;1541012;92;24553;-89
2021/09/03 11:29:50;;;;;;;;;;;;;;;21.44;69.86;98587.16;1549024;92;20237;-87
2021/09/03 11:32:18;;;;;;;;;;;;;;;21.47;69.69;98578.81;1570151;90;26235;-87
2021/09/03 11:35:02;;;;;;;;;;;;;;;21.52;69.56;98579.12;1551372;92;22738;-87
2021/09/03 11:37:45;;;;;;;;;;;;;;;21.53;69.36;98570.97;1589037;88;26205;-88
2021/09/03 11:40:23;;;;;;;;;;;;;;;21.57;69.14;98564.78;1565308;90;24575;-87
2021/09/03 11:42:50;;;;;;;;;;;;;;;21.60;68.95;98565.79;1544541;92;20680;-87
2021/09/03 11:45:21;;;;;;;;;;;;;;;21.62;68.66;98564.59;1562213;91;25251;-88
2021/09/03 11:47:54;;;;;;;;;;;;;;;21.67;68.49;98560.08;1541850;91;22037;-88
2021/09/03 11:50:26;;;;;;;;;;;;;;;21.75;68.42;98561.37;1549527;91;26029;-88
2021/09/03 11:52:53;;;;;;;;;;;;;;;21.84;68.31;98558.98;1544527;91;24536;-87
2021/09/03 11:55:23;;;;;;;;;;;;;;;21.91;68.13;98555.13;1545027;91;20263;-90
2021/09/03 11:57:52;;;;;;;;;;;;;;;21.96;67.91;98563.45;1575107;89;25026;-88
2021/09/03 12:00:19;;;;;;;;;;;;;;;21.95;67.61;98553.79;1547356;91;22001;-89
2021/09/03 12:02:49;;;;;;;;;;;;;;;21.93;67.37;98556.59;1550863;91;26816;-88
2021/09/03 12:05:17;;;;;;;;;;;;;;;21.80;67.02;98556.85;1553920;91;24721;-90
2021/09/03 12:08:04;;;;;;;;;;;;;;;21.80;66.84;98560.84;1554320;91;20262;-87
2021/09/03 12:10:34;;;;;;;;;;;;;;;21.85;66.72;98552.66;1544990;91;24854;-88
2021/09/03 12:13:14;;;;;;;;;;;;;;;21.94;66.63;98545.43;1548995;91;22080;-87
2021/09/03 12:15:41;;;;;;;;;;;;;;;21.92;66.40;98546.13;1549671;91;26041;-86
2021/09/03 12:18:28;;;;;;;;;;;;;;;21.97;66.26;98548.62;1545565;91;24352;-89
2021/09/03 12:20:58;;;;;;;;;;;;;;;22.05;66.20;98543.23;1549763;91;20230;-89
2021/09/03 12:23:25;;;;;;;;;;;;;;;22.13;66.12;98533.52;1577231;89;25445;-89
2021/09/03 12:25:53;;;;;;;;;;;;;;;22.11;65.93;98534.52;1571895;90;21948;-89
2021/09/03 12:28:19;;;;;;;;;;;;;;;22.11;65.78;98529.69;1539739;90;26066;-89
2021/09/03 12:30:50;;;;;;;;;;;;;;;22.14;65.55;98527.19;1581754;90;24544;-89
2021/09/03 12:33:24;;;;;;;;;;;;;;;22.20;65.35;98527.31;1542515;91;20245;-89
2021/09/03 12:35:51;;;;;;;;;;;;;;;22.26;65.30;98525.73;1567358;89;25266;-89
2021/09/03 12:38:19;;;;;;;;;;;;;;;22.32;65.22;98517.03;1569654;90;22004;-86
2021/09/03 12:40:48;;;;;;;;;;;;;;;22.38;65.16;98511.81;1541227;89;26036;-86
2021/09/03 12:43:17;;;;;;;;;;;;;;;22.40;64.90;98512.97;1573982;90;24442;-86
2021/09/03 12:45:47;;;;;;;;;;;;;;;22.44;64.80;98509.77;1574598;89;20329;-86
2021/09/03 12:48:13;;;;;;;;;;;;;;;22.51;64.69;98509.88;1575622;89;24774;-86
2021/09/03 12:50:45;;;;;;;;;;;;;;;22.56;64.44;98509.33;1573578;90;22190;-87
2021/09/03 12:53:19;;;;;;;;;;;;;;;22.57;64.25;98506.48;1562934;90;26016;-87
2021/09/03 12:55:52;;;;;;;;;;;;;;;22.58;64.10;98506.81;1568440;90;24629;-87